^^
Your Local Weather - Clay, NY Station Historical Data
Daily Summary for December 27, 2017 Units:  English    Metric   Both
« Previous Day
Next Day »
Daily Weekly Monthly Yearly Custom
  High: Low: Average:
Temperature: 15.0 °F 3.0 °F 9 °F
Dew Point: 9.1 °F -3.0 °F 2.6 °F
Humidity: 86% 62% 75%
Wind Speed: 5.0mph 0.0mph 1.6mph
Wind Gust: 8.0mph - -
Wind- - WSW
Pressure: 30.52 in 30.42 in -
Precipitation: 0.00 in    
Historical Graphs
 
 
Tabular Data for December 27, 2017
Time Temperature Dew Point Pressure Wind Wind Speed Wind Gust Humidity Rainfall Rate (Hourly) solar
00:04 7.3 °F -3.0 °F 30.43 in WSW 1.0 mph 2.0 mph 62% 0.00 in 0 W/m2
00:10 7.4 °F -2.9 °F 30.43 in West 1.0 mph 1.0 mph 62% 0.00 in 0 W/m2
00:16 7.3 °F -3.0 °F 30.43 in West 1.0 mph 2.0 mph 62% 0.00 in 0 W/m2
00:22 7.4 °F -2.9 °F 30.43 in West 1.0 mph 1.0 mph 62% 0.00 in 0 W/m2
00:28 7.4 °F -2.9 °F 30.43 in West 1.0 mph 1.0 mph 62% 0.00 in 0 W/m2
00:34 7.4 °F -2.9 °F 30.43 in West 1.0 mph 3.0 mph 62% 0.00 in 0 W/m2
00:40 7.4 °F -2.9 °F 30.42 in West 1.0 mph 1.0 mph 62% 0.00 in 0 W/m2
00:46 7.4 °F -2.9 °F 30.43 in Calm   1.0 mph 62% 0.00 in 0 W/m2
00:48 7.4 °F -2.9 °F 30.43 in West 1.0 mph 1.0 mph 62% 0.00 in 0 W/m2
00:54 7.3 °F -2.7 °F 30.43 in Calm   4.0 mph 63% 0.00 in 0 W/m2
01:00 7.2 °F -2.8 °F 30.43 in West 1.0 mph 1.0 mph 63% 0.00 in 0 W/m2
01:06 7.1 °F -2.9 °F 30.42 in WSW 1.0 mph 1.0 mph 63% 0.00 in 0 W/m2
01:12 7.3 °F -2.3 °F 30.43 in WSW 1.0 mph 1.0 mph 64% 0.00 in 0 W/m2
01:18 7.5 °F -2.1 °F 30.42 in WSW 1.0 mph 3.0 mph 64% 0.00 in 0 W/m2
01:24 7.7 °F -2.0 °F 30.42 in West 2.0 mph 2.0 mph 64% 0.00 in 0 W/m2
01:30 7.6 °F -2.1 °F 30.43 in WSW 1.0 mph 1.0 mph 64% 0.00 in 0 W/m2
01:36 7.5 °F -2.1 °F 30.43 in WSW 1.0 mph 2.0 mph 64% 0.00 in 0 W/m2
01:38 7.5 °F -2.1 °F 30.43 in WSW 1.0 mph 3.0 mph 64% 0.00 in 0 W/m2
01:44 7.6 °F -1.7 °F 30.43 in WSW 1.0 mph 7.0 mph 65% 0.00 in 0 W/m2
01:50 7.6 °F -1.7 °F 30.43 in WSW 1.0 mph 1.0 mph 65% 0.00 in 0 W/m2
01:56 7.6 °F -1.7 °F 30.43 in WSW 1.0 mph 1.0 mph 65% 0.00 in 0 W/m2
02:02 7.4 °F -1.9 °F 30.43 in WSW 1.0 mph 1.0 mph 65% 0.00 in 0 W/m2
02:08 7.3 °F -2.0 °F 30.43 in SW 1.0 mph 3.0 mph 65% 0.00 in 0 W/m2
02:10 7.3 °F -2.0 °F 30.43 in SW 1.0 mph 1.0 mph 65% 0.00 in 0 W/m2
02:16 7.3 °F -2.0 °F 30.43 in Calm   3.0 mph 65% 0.00 in 0 W/m2
02:22 7.3 °F -2.0 °F 30.43 in SW 1.0 mph 2.0 mph 65% 0.00 in 0 W/m2
02:28 7.3 °F -2.0 °F 30.43 in SW 1.0 mph 2.0 mph 65% 0.00 in 0 W/m2
02:34 7.2 °F -2.1 °F 30.44 in Calm   1.0 mph 65% 0.00 in 0 W/m2
02:40 7.1 °F -1.9 °F 30.43 in Calm     66% 0.00 in 0 W/m2
02:46 7.1 °F -1.9 °F 30.43 in Calm   2.0 mph 66% 0.00 in 0 W/m2
02:50 7.0 °F -2.0 °F 30.43 in Calm     66% 0.00 in 0 W/m2
02:56 7.0 °F -2.0 °F 30.43 in SW 1.0 mph 2.0 mph 66% 0.00 in 0 W/m2
03:02 7.2 °F -1.5 °F 30.43 in SW 1.0 mph 1.0 mph 67% 0.00 in 0 W/m2
03:08 7.3 °F -1.7 °F 30.43 in SW 1.0 mph 2.0 mph 66% 0.00 in 0 W/m2
03:14 7.5 °F -1.5 °F 30.43 in SW 1.0 mph 1.0 mph 66% 0.00 in 0 W/m2
03:20 7.5 °F -1.5 °F 30.43 in SW 1.0 mph 1.0 mph 66% 0.00 in 0 W/m2
03:26 7.5 °F -1.5 °F 30.43 in Calm   1.0 mph 66% 0.00 in 0 W/m2
03:30 7.4 °F -1.6 °F 30.43 in Calm     66% 0.00 in 0 W/m2
03:36 7.3 °F -1.7 °F 30.43 in Calm   1.0 mph 66% 0.00 in 0 W/m2
03:42 7.2 °F -1.8 °F 30.43 in Calm     66% 0.00 in 0 W/m2
03:48 7.2 °F -1.8 °F 30.43 in SW 1.0 mph 1.0 mph 66% 0.00 in 0 W/m2
03:54 7.2 °F -1.8 °F 30.43 in SW 1.0 mph 2.0 mph 66% 0.00 in 0 W/m2
03:58 7.2 °F -1.8 °F 30.43 in Calm   2.0 mph 66% 0.00 in 0 W/m2
04:04 7.1 °F -1.9 °F 30.43 in Calm     66% 0.00 in 0 W/m2
04:10 6.9 °F -1.8 °F 30.43 in Calm   2.0 mph 67% 0.00 in 0 W/m2
04:16 6.9 °F -2.1 °F 30.43 in Calm   2.0 mph 66% 0.00 in 0 W/m2
04:22 6.9 °F -2.1 °F 30.42 in Calm   3.0 mph 66% 0.00 in 0 W/m2
04:28 7.0 °F -2.0 °F 30.42 in SW 1.0 mph 3.0 mph 66% 0.00 in 0 W/m2
04:30 7.0 °F -2.0 °F 30.42 in SW 1.0 mph 1.0 mph 66% 0.00 in 0 W/m2
04:36 7.2 °F -1.8 °F 30.42 in West 1.0 mph 4.0 mph 66% 0.00 in 0 W/m2
04:42 7.3 °F -2.0 °F 30.42 in SW 1.0 mph 3.0 mph 65% 0.00 in 0 W/m2
04:48 7.7 °F -2.0 °F 30.42 in WSW 2.0 mph 5.0 mph 64% 0.00 in 0 W/m2
04:54 7.9 °F -1.8 °F 30.42 in SW 2.0 mph 5.0 mph 64% 0.00 in 0 W/m2
05:00 7.9 °F -2.1 °F 30.42 in WSW 2.0 mph 3.0 mph 63% 0.00 in 0 W/m2
05:02 7.9 °F -2.1 °F 30.42 in WSW 2.0 mph 3.0 mph 63% 0.00 in 0 W/m2
05:08 7.8 °F -2.2 °F 30.42 in WSW 2.0 mph 4.0 mph 63% 0.00 in 0 W/m2
05:16 7.9 °F -2.1 °F 30.42 in WSW 1.0 mph 3.0 mph 63% 0.00 in 0 W/m2
05:22 7.9 °F -2.1 °F 30.42 in West 1.0 mph 3.0 mph 63% 0.00 in 0 W/m2
05:28 7.9 °F -2.1 °F 30.42 in SW 2.0 mph 4.0 mph 63% 0.00 in 0 W/m2
05:34 7.9 °F -1.8 °F 30.42 in WSW 3.0 mph 3.0 mph 64% 0.00 in 0 W/m2
05:40 8.0 °F -1.7 °F 30.42 in SW 2.0 mph 4.0 mph 64% 0.00 in 0 W/m2
05:46 7.9 °F -1.8 °F 30.42 in WSW 2.0 mph 5.0 mph 64% 0.00 in 0 W/m2
05:52 7.9 °F -1.8 °F 30.42 in SW 2.0 mph 3.0 mph 64% 0.00 in 0 W/m2
05:58 7.9 °F -1.8 °F 30.43 in WSW 2.0 mph 4.0 mph 64% 0.00 in 0 W/m2
06:04 7.9 °F -1.4 °F 30.43 in SW 2.0 mph 3.0 mph 65% 0.00 in 0 W/m2
06:10 8.0 °F -1.3 °F 30.43 in SW 3.0 mph 6.0 mph 65% 0.00 in 0 W/m2
06:16 8.1 °F -1.2 °F 30.43 in WSW 3.0 mph 6.0 mph 65% 0.00 in 0 W/m2
06:22 8.1 °F -1.2 °F 30.43 in WSW 2.0 mph 2.0 mph 65% 0.00 in 0 W/m2
06:28 8.2 °F -1.2 °F 30.43 in WSW 2.0 mph 3.0 mph 65% 0.00 in 0 W/m2
06:32 8.3 °F -1.1 °F 30.43 in WSW 3.0 mph 3.0 mph 65% 0.00 in 0 W/m2
06:36 8.4 °F -1.0 °F 30.43 in West 3.0 mph 3.0 mph 65% 0.00 in 0 W/m2
06:42 8.5 °F -0.9 °F 30.43 in WSW 2.0 mph 6.0 mph 65% 0.00 in 0 W/m2
06:48 8.4 °F -1.0 °F 30.43 in WSW 2.0 mph 6.0 mph 65% 0.00 in 0 W/m2
06:54 8.4 °F -1.0 °F 30.43 in WSW 2.0 mph 2.0 mph 65% 0.00 in 0 W/m2
07:00 8.4 °F -0.6 °F 30.43 in West 2.0 mph 2.0 mph 66% 0.00 in 0 W/m2
07:06 8.5 °F -0.5 °F 30.43 in WSW 2.0 mph 2.0 mph 66% 0.00 in 0 W/m2
07:12 8.5 °F -0.5 °F 30.43 in SW 2.0 mph 2.0 mph 66% 0.00 in 0 W/m2
07:18 8.6 °F -0.4 °F 30.43 in SW 2.0 mph 3.0 mph 66% 0.00 in 0 W/m2
07:24 8.7 °F 0.0 °F 30.43 in WSW 2.0 mph 2.0 mph 67% 0.00 in 0 W/m2
07:30 8.7 °F 0.0 °F 30.43 in SW 1.0 mph 5.0 mph 67% 0.00 in 0 W/m2
07:32 8.8 °F 0.1 °F 30.43 in WSW 2.0 mph 5.0 mph 67% 0.00 in 0 W/m2
07:38 9.0 °F 0.3 °F 30.44 in SW 2.0 mph 5.0 mph 67% 0.00 in 5 W/m2
07:44 9.1 °F 0.7 °F 30.44 in West 2.0 mph 6.0 mph 68% 0.00 in 5 W/m2
07:50 9.1 °F 1.0 °F 30.44 in WNW 2.0 mph 2.0 mph 69% 0.00 in 7 W/m2
07:56 9.1 °F 1.3 °F 30.44 in West 2.0 mph 5.0 mph 70% 0.00 in 11 W/m2
08:02 9.0 °F 1.5 °F 30.45 in WSW 3.0 mph 3.0 mph 71% 0.00 in 30 W/m2
08:08 9.0 °F 1.8 °F 30.45 in West 3.0 mph 3.0 mph 72% 0.00 in 21 W/m2
08:14 8.9 °F 2.0 °F 30.45 in WSW 3.0 mph 8.0 mph 73% 0.00 in 21 W/m2
08:20 8.9 °F 2.3 °F 30.45 in West 4.0 mph 4.0 mph 74% 0.00 in 30 W/m2
08:26 8.8 °F 2.5 °F 30.45 in WSW 3.0 mph 4.0 mph 75% 0.00 in 26 W/m2
08:32 8.7 °F 2.4 °F 30.45 in WSW 3.0 mph 4.0 mph 75% 0.00 in 32 W/m2
08:38 8.7 °F 2.7 °F 30.45 in WSW 3.0 mph 5.0 mph 76% 0.00 in 47 W/m2
08:44 8.7 °F 3.0 °F 30.45 in West 3.0 mph 5.0 mph 77% 0.00 in 62 W/m2
08:50 8.9 °F 3.2 °F 30.45 in WNW 2.0 mph 4.0 mph 77% 0.00 in 91 W/m2
08:56 9.0 °F 3.3 °F 30.46 in WSW 3.0 mph 7.0 mph 77% 0.00 in 58 W/m2
09:02 9.1 °F 3.6 °F 30.46 in WSW 4.0 mph 5.0 mph 78% 0.00 in 53 W/m2
09:08 9.1 °F 3.9 °F 30.46 in WSW 4.0 mph 5.0 mph 79% 0.00 in 58 W/m2
09:14 9.2 °F 4.0 °F 30.46 in WSW 3.0 mph 4.0 mph 79% 0.00 in 91 W/m2
09:20 9.4 °F 4.2 °F 30.47 in West 3.0 mph 3.0 mph 79% 0.00 in 98 W/m2
09:26 9.4 °F 3.9 °F 30.47 in WSW 3.0 mph 6.0 mph 78% 0.00 in 123 W/m2
09:32 9.4 °F 4.2 °F 30.47 in WSW 3.0 mph 4.0 mph 79% 0.00 in 109 W/m2
09:38 9.6 °F 4.4 °F 30.47 in WSW 3.0 mph 4.0 mph 79% 0.00 in 137 W/m2
09:44 10.0 °F 4.8 °F 30.47 in WSW 3.0 mph 4.0 mph 79% 0.00 in 287 W/m2
09:48 10.5 °F 5.0 °F 30.47 in West 3.0 mph 7.0 mph 78% 0.00 in 294 W/m2
09:54 10.7 °F 4.9 °F 30.47 in WSW 3.0 mph 4.0 mph 77% 0.00 in 172 W/m2
10:00 10.3 °F 4.5 °F 30.47 in SW 4.0 mph 6.0 mph 77% 0.00 in 116 W/m2
10:06 10.5 °F 4.7 °F 30.47 in WSW 3.0 mph 6.0 mph 77% 0.00 in 250 W/m2
10:12 11.3 °F 5.2 °F 30.47 in West 3.0 mph 5.0 mph 76% 0.00 in 429 W/m2
10:18 12.4 °F 5.7 °F 30.47 in WSW 4.0 mph 5.0 mph 74% 0.00 in 438 W/m2
10:24 12.1 °F 4.8 °F 30.47 in WSW 4.0 mph 4.0 mph 72% 0.00 in 199 W/m2
10:30 11.9 °F 4.9 °F 30.47 in WSW 4.0 mph 6.0 mph 73% 0.00 in 193 W/m2
10:34 11.9 °F 4.9 °F 30.47 in WNW 4.0 mph 6.0 mph 73% 0.00 in 190 W/m2
10:40 12.0 °F 5.0 °F 30.47 in WSW 4.0 mph 4.0 mph 73% 0.00 in 209 W/m2
10:46 12.1 °F 5.1 °F 30.47 in WNW 3.0 mph 5.0 mph 73% 0.00 in 237 W/m2
10:50 12.4 °F 5.4 °F 30.47 in WSW 3.0 mph 3.0 mph 73% 0.00 in 200 W/m2
10:56 12.7 °F 5.7 °F 30.47 in WSW 3.0 mph 3.0 mph 73% 0.00 in 202 W/m2
10:58 12.8 °F 5.8 °F 30.47 in West 4.0 mph 4.0 mph 73% 0.00 in 193 W/m2
11:04 12.8 °F 5.8 °F 30.47 in WNW 4.0 mph 4.0 mph 73% 0.00 in 160 W/m2
11:10 13.0 °F 6.0 °F 30.47 in West 3.0 mph 3.0 mph 73% 0.00 in 204 W/m2
11:16 13.3 °F 6.0 °F 30.47 in WNW 3.0 mph 7.0 mph 72% 0.00 in 200 W/m2
11:22 13.3 °F 5.6 °F 30.47 in West 4.0 mph 4.0 mph 71% 0.00 in 178 W/m2
11:26 13.3 °F 5.6 °F 30.47 in West 4.0 mph 5.0 mph 71% 0.00 in 186 W/m2
11:32 13.1 °F 5.8 °F 30.47 in WSW 4.0 mph 4.0 mph 72% 0.00 in 123 W/m2
11:36 12.9 °F 5.9 °F 30.47 in WSW 4.0 mph 7.0 mph 73% 0.00 in 141 W/m2
11:42 12.8 °F 6.4 °F 30.47 in West 3.0 mph 4.0 mph 75% 0.00 in 141 W/m2
11:46 13.0 °F 6.6 °F 30.47 in West 3.0 mph 4.0 mph 75% 0.00 in 167 W/m2
11:52 13.2 °F 6.8 °F 30.47 in WSW 3.0 mph 3.0 mph 75% 0.00 in 220 W/m2
11:58 13.6 °F 7.4 °F 30.47 in NW 3.0 mph 4.0 mph 76% 0.00 in 287 W/m2
12:04 13.9 °F 7.7 °F 30.47 in WSW 2.0 mph 4.0 mph 76% 0.00 in 192 W/m2
12:10 14.1 °F 7.9 °F 30.46 in WNW 2.0 mph 2.0 mph 76% 0.00 in 251 W/m2
12:16 15.0 °F 8.5 °F 30.46 in WNW 2.0 mph 4.0 mph 75% 0.00 in 403 W/m2
12:24 14.3 °F 7.5 °F 30.45 in NW 5.0 mph 5.0 mph 74% 0.00 in 267 W/m2
12:30 14.3 °F 8.1 °F 30.45 in WNW 5.0 mph 5.0 mph 76% 0.00 in 292 W/m2
12:36 14.5 °F 8.3 °F 30.45 in WNW 4.0 mph 5.0 mph 76% 0.00 in 206 W/m2
12:42 14.3 °F 8.7 °F 30.45 in WNW 3.0 mph 3.0 mph 78% 0.00 in 188 W/m2
12:44 14.3 °F 8.7 °F 30.45 in WNW 3.0 mph 5.0 mph 78% 0.00 in 153 W/m2
12:50 13.9 °F 8.6 °F 30.45 in NNW 3.0 mph 4.0 mph 79% 0.00 in 56 W/m2
12:56 13.0 °F 8.3 °F 30.46 in NNW 4.0 mph 4.0 mph 81% 0.00 in 65 W/m2
13:04 12.7 °F 8.5 °F 30.46 in NNW 1.0 mph 3.0 mph 83% 0.00 in 72 W/m2
13:10 12.9 °F 9.0 °F 30.45 in North 1.0 mph 3.0 mph 84% 0.00 in 98 W/m2
13:16 13.0 °F 9.1 °F 30.45 in NNW 2.0 mph 5.0 mph 84% 0.00 in 88 W/m2
13:22 12.9 °F 9.0 °F 30.45 in NNW 2.0 mph 3.0 mph 84% 0.00 in 74 W/m2
13:28 12.8 °F 8.6 °F 30.45 in NNW 2.0 mph 3.0 mph 83% 0.00 in 79 W/m2
13:34 12.6 °F 8.1 °F 30.45 in NNW 3.0 mph 3.0 mph 82% 0.00 in 69 W/m2
13:38 12.5 °F 8.0 °F 30.45 in NNW 3.0 mph 4.0 mph 82% 0.00 in 51 W/m2
13:44 12.5 °F 7.8 °F 30.45 in North 2.0 mph 3.0 mph 81% 0.00 in 54 W/m2
13:50 12.3 °F 7.3 °F 30.45 in NNW 2.0 mph 2.0 mph 80% 0.00 in 51 W/m2
13:56 12.3 °F 7.0 °F 30.46 in NNW 2.0 mph 2.0 mph 79% 0.00 in 54 W/m2
14:02 12.3 °F 7.3 °F 30.46 in NNW 2.0 mph 2.0 mph 80% 0.00 in 63 W/m2
14:14 12.3 °F 7.3 °F 30.45 in NE 1.0 mph 1.0 mph 80% 0.00 in 47 W/m2
14:22 12.2 °F 7.5 °F 30.46 in NE 1.0 mph 1.0 mph 81% 0.00 in 49 W/m2
14:30 12.3 °F 7.6 °F 30.46 in Calm     81% 0.00 in 42 W/m2
14:36 12.3 °F 7.6 °F 30.46 in Calm     81% 0.00 in 42 W/m2
14:42 12.3 °F 7.6 °F 30.46 in NE 1.0 mph 1.0 mph 81% 0.00 in 40 W/m2
14:48 12.3 °F 7.3 °F 30.47 in NNE 1.0 mph 2.0 mph 80% 0.00 in 26 W/m2
14:54 12.2 °F 7.2 °F 30.47 in NNE 1.0 mph 2.0 mph 80% 0.00 in 28 W/m2
15:00 11.9 °F 6.9 °F 30.47 in North 1.0 mph 1.0 mph 80% 0.00 in 35 W/m2
15:06 11.8 °F 6.5 °F 30.47 in NNE 1.0 mph 1.0 mph 79% 0.00 in 49 W/m2
15:12 11.8 °F 6.5 °F 30.47 in NNE 2.0 mph 2.0 mph 79% 0.00 in 35 W/m2
15:18 11.9 °F 6.6 °F 30.47 in North 1.0 mph 3.0 mph 79% 0.00 in 33 W/m2
15:24 11.9 °F 6.6 °F 30.47 in NNW 1.0 mph 2.0 mph 79% 0.00 in 35 W/m2
15:30 11.9 °F 6.6 °F 30.48 in NE 2.0 mph 4.0 mph 79% 0.00 in 28 W/m2
15:36 11.5 °F 6.5 °F 30.48 in NNW 2.0 mph 6.0 mph 80% 0.00 in 32 W/m2
15:42 11.2 °F 6.2 °F 30.48 in North 3.0 mph 4.0 mph 80% 0.00 in 28 W/m2
15:48 11.0 °F 6.0 °F 30.48 in North 2.0 mph 4.0 mph 80% 0.00 in 21 W/m2
15:54 11.0 °F 6.3 °F 30.48 in North 1.0 mph 2.0 mph 81% 0.00 in 18 W/m2
16:00 10.7 °F 6.0 °F 30.49 in NE 1.0 mph 2.0 mph 81% 0.00 in 12 W/m2
16:06 10.4 °F 5.7 °F 30.49 in North 2.0 mph 2.0 mph 81% 0.00 in 12 W/m2
16:12 9.9 °F 5.2 °F 30.49 in NE 1.0 mph 1.0 mph 81% 0.00 in 11 W/m2
16:18 9.7 °F 5.0 °F 30.49 in NE 1.0 mph 2.0 mph 81% 0.00 in 9 W/m2
16:26 9.3 °F 4.6 °F 30.49 in NNE 1.0 mph 3.0 mph 81% 0.00 in 5 W/m2
16:32 9.0 °F 4.4 °F 30.49 in NNE 1.0 mph 1.0 mph 81% 0.00 in 0 W/m2
16:38 8.6 °F 4.0 °F 30.49 in Calm   1.0 mph 81% 0.00 in 0 W/m2
16:44 8.4 °F 3.8 °F 30.49 in Calm     81% 0.00 in 0 W/m2
16:48 8.1 °F 3.5 °F 30.50 in Calm     81% 0.00 in 0 W/m2
16:54 7.5 °F 2.9 °F 30.50 in Calm     81% 0.00 in 0 W/m2
17:02 6.8 °F 2.2 °F 30.50 in Calm     81% 0.00 in 0 W/m2
17:08 6.2 °F 1.6 °F 30.50 in Calm     81% 0.00 in 0 W/m2
17:14 5.8 °F 1.2 °F 30.50 in Calm     81% 0.00 in 0 W/m2
17:20 5.5 °F 0.9 °F 30.50 in Calm     81% 0.00 in 0 W/m2
17:26 5.1 °F 0.8 °F 30.50 in Calm     82% 0.00 in 0 W/m2
17:32 4.7 °F 0.4 °F 30.50 in Calm     82% 0.00 in 0 W/m2
17:38 4.3 °F 0.0 °F 30.50 in Calm     82% 0.00 in 0 W/m2
17:44 3.9 °F -0.4 °F 30.50 in Calm     82% 0.00 in 0 W/m2
17:48 3.6 °F -0.7 °F 30.50 in Calm     82% 0.00 in 0 W/m2
17:54 3.3 °F -0.7 °F 30.50 in Calm     83% 0.00 in 0 W/m2
18:00 3.1 °F -0.9 °F 30.50 in Calm     83% 0.00 in 0 W/m2
18:06 3.0 °F -1.0 °F 30.50 in Calm     83% 0.00 in 0 W/m2
18:12 3.0 °F -1.0 °F 30.51 in Calm     83% 0.00 in 0 W/m2
18:18 3.0 °F -1.0 °F 30.51 in Calm     83% 0.00 in 0 W/m2
18:24 3.0 °F -0.7 °F 30.51 in Calm     84% 0.00 in 0 W/m2
18:30 3.2 °F -0.5 °F 30.51 in Calm     84% 0.00 in 0 W/m2
18:36 3.3 °F -0.4 °F 30.51 in Calm     84% 0.00 in 0 W/m2
18:42 4.0 °F 0.5 °F 30.51 in Calm     85% 0.00 in 0 W/m2
18:48 4.3 °F 0.8 °F 30.51 in Calm     85% 0.00 in 0 W/m2
18:54 4.8 °F 1.3 °F 30.51 in Calm     85% 0.00 in 0 W/m2
19:00 5.2 °F 1.7 °F 30.51 in Calm     85% 0.00 in 0 W/m2
19:06 5.6 °F 2.1 °F 30.51 in NNE 1.0 mph 2.0 mph 85% 0.00 in 0 W/m2
19:12 6.1 °F 2.6 °F 30.51 in SE 1.0 mph 3.0 mph 85% 0.00 in 0 W/m2
19:18 6.9 °F 3.6 °F 30.51 in SE 1.0 mph 3.0 mph 86% 0.00 in 0 W/m2
19:24 7.2 °F 3.9 °F 30.51 in Calm   1.0 mph 86% 0.00 in 0 W/m2
19:30 7.3 °F 4.0 °F 30.51 in Calm     86% 0.00 in 0 W/m2
19:34 7.5 °F 4.2 °F 30.51 in Calm     86% 0.00 in 0 W/m2
19:40 7.8 °F 4.5 °F 30.51 in Calm     86% 0.00 in 0 W/m2
19:46 8.0 °F 4.7 °F 30.51 in Calm     86% 0.00 in 0 W/m2
19:52 8.3 °F 5.0 °F 30.51 in Calm     86% 0.00 in 0 W/m2
19:58 8.1 °F 4.8 °F 30.51 in Calm     86% 0.00 in 0 W/m2
20:06 8.0 °F 4.7 °F 30.51 in Calm     86% 0.00 in 0 W/m2
20:08 8.0 °F 4.7 °F 30.51 in Calm     86% 0.00 in 0 W/m2
20:14 8.1 °F 4.8 °F 30.51 in Calm     86% 0.00 in 0 W/m2
20:20 8.2 °F 4.9 °F 30.51 in Calm     86% 0.00 in 0 W/m2
20:26 8.2 °F 4.9 °F 30.51 in Calm     86% 0.00 in 0 W/m2
20:32 8.6 °F 5.3 °F 30.51 in WNW 1.0 mph 2.0 mph 86% 0.00 in 0 W/m2
20:44 9.7 °F 6.4 °F 30.51 in WNW 1.0 mph 2.0 mph 86% 0.00 in 0 W/m2
20:50 9.9 °F 6.6 °F 30.51 in WNW 1.0 mph 1.0 mph 86% 0.00 in 0 W/m2
20:56 10.1 °F 6.7 °F 30.51 in Calm   1.0 mph 86% 0.00 in 0 W/m2
21:02 10.1 °F 6.7 °F 30.51 in WNW 1.0 mph 2.0 mph 86% 0.00 in 0 W/m2
21:08 10.2 °F 6.8 °F 30.51 in Calm   3.0 mph 86% 0.00 in 0 W/m2
21:14 10.1 °F 6.7 °F 30.51 in WNW 1.0 mph 1.0 mph 86% 0.00 in 0 W/m2
21:20 10.1 °F 6.7 °F 30.51 in NNW 1.0 mph 1.0 mph 86% 0.00 in 0 W/m2
21:26 10.1 °F 6.7 °F 30.51 in NW 1.0 mph 4.0 mph 86% 0.00 in 0 W/m2
21:32 10.1 °F 6.7 °F 30.51 in NW 2.0 mph 3.0 mph 86% 0.00 in 0 W/m2
21:40 10.0 °F 6.6 °F 30.51 in NW 2.0 mph 2.0 mph 86% 0.00 in 0 W/m2
21:46 10.0 °F 6.4 °F 30.51 in WNW 2.0 mph 2.0 mph 85% 0.00 in 0 W/m2
21:52 9.8 °F 6.2 °F 30.51 in NW 2.0 mph 2.0 mph 85% 0.00 in 0 W/m2
21:58 9.8 °F 6.2 °F 30.51 in NNW 2.0 mph 6.0 mph 85% 0.00 in 0 W/m2
22:04 9.8 °F 6.2 °F 30.51 in NNW 1.0 mph 2.0 mph 85% 0.00 in 0 W/m2
22:10 9.7 °F 6.1 °F 30.51 in NNW 1.0 mph 1.0 mph 85% 0.00 in 0 W/m2
22:18 9.7 °F 6.4 °F 30.51 in WNW 1.0 mph 2.0 mph 86% 0.00 in 0 W/m2
22:24 9.7 °F 6.4 °F 30.51 in WNW 2.0 mph 2.0 mph 86% 0.00 in 0 W/m2
22:30 9.7 °F 6.1 °F 30.51 in WNW 2.0 mph 4.0 mph 85% 0.00 in 0 W/m2
22:36 9.6 °F 6.0 °F 30.51 in NNW 2.0 mph 4.0 mph 85% 0.00 in 0 W/m2
22:42 9.4 °F 5.8 °F 30.51 in NW 3.0 mph 3.0 mph 85% 0.00 in 0 W/m2
22:48 9.2 °F 5.6 °F 30.51 in NW 3.0 mph 5.0 mph 85% 0.00 in 0 W/m2
22:54 8.9 °F 5.3 °F 30.51 in NNW 3.0 mph 4.0 mph 85% 0.00 in 0 W/m2
23:00 8.7 °F 5.1 °F 30.52 in NW 3.0 mph 7.0 mph 85% 0.00 in 0 W/m2
23:06 8.5 °F 4.9 °F 30.52 in NW 3.0 mph 7.0 mph 85% 0.00 in 0 W/m2
23:12 8.2 °F 4.4 °F 30.52 in NNW 2.0 mph 5.0 mph 84% 0.00 in 0 W/m2
23:18 7.9 °F 3.8 °F 30.52 in NW 3.0 mph 5.0 mph 83% 0.00 in 0 W/m2
23:24 7.7 °F 3.4 °F 30.52 in NW 2.0 mph 4.0 mph 82% 0.00 in 0 W/m2
23:30 7.5 °F 2.9 °F 30.52 in NNW 3.0 mph 3.0 mph 81% 0.00 in 0 W/m2
23:36 7.3 °F 2.7 °F 30.52 in NW 3.0 mph 7.0 mph 81% 0.00 in 0 W/m2
23:40 7.3 °F 2.4 °F 30.52 in NW 3.0 mph 4.0 mph 80% 0.00 in 0 W/m2
23:46 7.1 °F 2.2 °F 30.52 in NW 4.0 mph 4.0 mph 80% 0.00 in 0 W/m2
23:54 6.8 °F 1.9 °F 30.52 in NW 3.0 mph 6.0 mph 80% 0.00 in 0 W/m2
Country Meadow, Clay, NY, USA
Compliments of Weather Underground - 2 mb